createdAt,value
2022-12-03T00:00:13.495Z,15.20
2022-12-03T00:02:40.942Z,15.97
2022-12-03T00:05:08.105Z,15.00
2022-12-03T00:07:34.563Z,16.33
2022-12-03T00:10:01.113Z,14.10
2022-12-03T00:12:27.670Z,15.57
2022-12-03T00:14:54.359Z,14.87
2022-12-03T00:17:21.236Z,14.63
2022-12-03T00:19:47.872Z,15.03
2022-12-03T00:22:14.487Z,15.40
2022-12-03T00:24:40.960Z,15.70
2022-12-03T00:27:07.447Z,14.87
2022-12-03T00:29:33.883Z,15.17
2022-12-03T00:32:00.284Z,16.37
2022-12-03T00:34:26.745Z,16.03
2022-12-03T00:36:53.337Z,15.67
2022-12-03T00:39:19.995Z,15.33
2022-12-03T00:41:46.447Z,15.93
2022-12-03T00:44:12.958Z,15.00
2022-12-03T00:46:39.603Z,14.80
2022-12-03T00:49:06.251Z,14.90
2022-12-03T00:51:32.702Z,14.80
2022-12-03T00:53:59.126Z,16.13
2022-12-03T00:56:25.632Z,15.57
2022-12-03T00:58:52.160Z,16.53
2022-12-03T01:01:18.731Z,15.70
2022-12-03T01:03:45.336Z,16.50
2022-12-03T01:06:11.765Z,16.67
2022-12-03T01:08:38.425Z,16.00
2022-12-03T01:11:24.978Z,16.87
2022-12-03T01:13:51.516Z,15.97
2022-12-03T01:16:18.047Z,17.17
2022-12-03T01:18:46.227Z,16.77
2022-12-03T01:21:12.881Z,16.57
2022-12-03T01:23:39.525Z,16.47
2022-12-03T01:26:05.992Z,17.33
2022-12-03T01:28:32.722Z,15.33
2022-12-03T01:31:18.046Z,17.20
2022-12-03T01:33:44.632Z,17.87
2022-12-03T01:36:11.082Z,17.03
2022-12-03T01:38:37.549Z,16.87
2022-12-03T01:41:08.675Z,16.97
2022-12-03T01:43:38.267Z,17.00
2022-12-03T01:46:04.937Z,16.50
2022-12-03T01:48:33.433Z,17.10
2022-12-03T01:51:00.322Z,16.70
2022-12-03T01:53:26.820Z,17.50
2022-12-03T01:55:53.418Z,16.63
2022-12-03T01:58:25.061Z,17.17
2022-12-03T02:00:51.538Z,16.97
2022-12-03T02:03:25.884Z,16.27
2022-12-03T02:05:52.512Z,17.23
2022-12-03T02:08:33.646Z,16.50
2022-12-03T02:11:07.855Z,16.57
2022-12-03T02:13:34.562Z,17.50
2022-12-03T02:16:01.134Z,16.80
2022-12-03T02:18:27.682Z,17.10
2022-12-03T02:21:20.288Z,17.50
2022-12-03T02:23:46.680Z,18.13
2022-12-03T02:26:13.191Z,17.37
2022-12-03T02:28:39.790Z,17.13
2022-12-03T02:31:06.756Z,17.90
2022-12-03T02:33:33.347Z,17.23
2022-12-03T02:36:03.538Z,17.77
2022-12-03T02:38:31.489Z,18.23
2022-12-03T02:40:59.908Z,17.97
2022-12-03T02:43:27.312Z,17.57
2022-12-03T02:45:55.781Z,17.73
2022-12-03T02:48:31.129Z,17.10
2022-12-03T02:50:59.988Z,17.50
2022-12-03T02:53:39.618Z,18.50
2022-12-03T02:56:07.087Z,17.93
2022-12-03T02:58:33.997Z,17.00
2022-12-03T03:01:01.907Z,18.20
2022-12-03T03:03:29.347Z,18.40
2022-12-03T03:05:59.400Z,17.83
2022-12-03T03:08:27.903Z,17.67
2022-12-03T03:10:56.228Z,17.87
2022-12-03T03:13:23.580Z,16.90
2022-12-03T03:15:50.144Z,18.37
2022-12-03T03:18:18.171Z,17.07
2022-12-03T03:20:47.116Z,18.03
2022-12-03T03:23:23.709Z,18.73
2022-12-03T03:25:57.425Z,18.50
2022-12-03T03:28:24.834Z,18.17
2022-12-03T03:30:51.980Z,18.33
2022-12-03T03:33:19.046Z,17.73
2022-12-03T03:35:47.006Z,18.23
2022-12-03T03:38:13.661Z,19.60
2022-12-03T03:40:40.624Z,19.67
2022-12-03T03:43:07.694Z,19.73
2022-12-03T03:45:34.692Z,18.00
2022-12-03T03:48:01.715Z,18.33
2022-12-03T03:50:29.970Z,18.47
2022-12-03T03:52:57.178Z,19.60
2022-12-03T03:55:23.880Z,19.40
2022-12-03T03:57:51.023Z,18.17
2022-12-03T04:00:17.939Z,19.57
2022-12-03T04:02:44.902Z,18.20
2022-12-03T04:05:17.333Z,19.40
2022-12-03T04:07:44.004Z,20.10
2022-12-03T04:10:29.776Z,18.20
2022-12-03T04:12:56.424Z,19.73
2022-12-03T04:15:23.704Z,20.00
2022-12-03T04:18:10.202Z,18.30
2022-12-03T04:20:37.989Z,18.60
2022-12-03T04:23:06.220Z,19.33
2022-12-03T04:25:51.421Z,19.43
2022-12-03T04:28:36.471Z,19.30
2022-12-03T04:31:22.967Z,19.23
2022-12-03T04:34:08.109Z,19.47
2022-12-03T04:36:34.720Z,18.47
2022-12-03T04:39:01.480Z,18.50
2022-12-03T04:41:28.058Z,20.00
2022-12-03T04:44:13.472Z,18.87
2022-12-03T04:46:40.217Z,19.70
2022-12-03T04:49:06.905Z,18.30
2022-12-03T04:51:33.475Z,19.40
2022-12-03T04:54:00.299Z,19.03
2022-12-03T04:56:27.041Z,19.07
2022-12-03T04:58:53.676Z,18.97
2022-12-03T05:01:20.211Z,20.13
2022-12-03T05:03:46.698Z,18.57
2022-12-03T05:06:13.171Z,19.43
2022-12-03T05:08:39.855Z,18.90
2022-12-03T05:11:06.438Z,20.17
2022-12-03T05:13:32.875Z,19.93
2022-12-03T05:15:59.339Z,19.10
2022-12-03T05:18:25.780Z,18.93
2022-12-03T05:20:53.693Z,19.03
2022-12-03T05:23:20.552Z,18.57
2022-12-03T05:25:47.284Z,19.00
2022-12-03T05:28:14.010Z,19.97
2022-12-03T05:30:40.818Z,19.47
2022-12-03T05:33:07.479Z,20.10
2022-12-03T05:35:34.097Z,19.27
2022-12-03T05:38:00.545Z,19.87
2022-12-03T05:40:27.063Z,19.50
2022-12-03T05:42:53.558Z,19.67
2022-12-03T05:45:31.816Z,19.97
2022-12-03T05:47:59.474Z,20.43
2022-12-03T05:50:28.459Z,20.13
2022-12-03T05:52:55.297Z,19.97
2022-12-03T05:55:21.772Z,21.13
2022-12-03T05:57:48.452Z,21.70
2022-12-03T06:00:17.905Z,21.23
2022-12-03T06:02:44.591Z,21.67
2022-12-03T06:05:12.573Z,20.73
2022-12-03T06:07:39.567Z,20.73
2022-12-03T06:10:08.783Z,20.87
2022-12-03T06:12:35.551Z,21.23
2022-12-03T06:15:02.477Z,21.17
2022-12-03T06:17:30.474Z,22.03
2022-12-03T06:19:57.406Z,22.53
2022-12-03T06:22:24.815Z,21.93
2022-12-03T06:24:52.163Z,21.50
2022-12-03T06:27:19.449Z,20.80
2022-12-03T06:29:46.360Z,21.43
2022-12-03T06:32:14.592Z,21.00
2022-12-03T06:34:42.225Z,20.77
2022-12-03T06:37:09.073Z,23.50
2022-12-03T06:39:35.867Z,23.20
2022-12-03T06:42:03.470Z,20.87
2022-12-03T06:44:37.597Z,22.77
2022-12-03T06:47:06.088Z,21.80
2022-12-03T06:49:34.509Z,22.10
2022-12-03T06:52:01.172Z,22.33
2022-12-03T06:54:27.946Z,22.70
2022-12-03T06:56:55.873Z,23.03
2022-12-03T06:59:22.931Z,23.43
2022-12-03T07:01:50.742Z,23.50
2022-12-03T07:04:19.238Z,22.50
2022-12-03T07:06:51.466Z,23.67
2022-12-03T07:09:18.351Z,22.83
2022-12-03T07:11:45.291Z,22.73
2022-12-03T07:14:11.836Z,23.27
2022-12-03T07:16:39.518Z,23.33
2022-12-03T07:19:06.792Z,23.07
2022-12-03T07:21:33.359Z,23.27
2022-12-03T07:24:00.835Z,23.20
2022-12-03T07:26:30.598Z,22.33
2022-12-03T07:29:01.862Z,22.90
2022-12-03T07:31:32.155Z,23.20
2022-12-03T07:34:00.957Z,24.10
2022-12-03T07:36:27.824Z,23.90
2022-12-03T07:38:54.488Z,23.83
2022-12-03T07:41:21.356Z,22.80
2022-12-03T07:43:48.249Z,23.73
2022-12-03T07:46:14.922Z,24.23
2022-12-03T07:48:41.581Z,23.27
2022-12-03T07:51:10.516Z,23.13
2022-12-03T07:53:41.699Z,24.07
2022-12-03T07:56:08.807Z,22.23
2022-12-03T07:58:35.923Z,23.67
2022-12-03T08:01:02.932Z,23.23
2022-12-03T08:03:29.480Z,22.73
2022-12-03T08:05:56.165Z,23.13
2022-12-03T08:08:22.801Z,22.33
2022-12-03T08:10:49.557Z,22.63
2022-12-03T08:13:19.289Z,22.73
2022-12-03T08:15:46.339Z,22.60
2022-12-03T08:18:22.427Z,21.70
2022-12-03T08:20:51.099Z,22.90
2022-12-03T08:23:20.283Z,22.73
2022-12-03T08:25:47.612Z,23.63
2022-12-03T08:28:26.802Z,22.80
2022-12-03T08:31:21.053Z,23.03
2022-12-03T08:33:50.649Z,23.93
2022-12-03T08:36:31.713Z,22.67
2022-12-03T08:39:07.041Z,24.40
2022-12-03T08:41:52.381Z,23.13
2022-12-03T08:44:29.924Z,23.40
2022-12-03T08:47:15.729Z,23.30
2022-12-03T08:49:42.361Z,24.47
2022-12-03T08:52:17.504Z,24.47
2022-12-03T08:54:48.418Z,24.50
2022-12-03T08:57:25.176Z,24.70
2022-12-03T08:59:56.390Z,23.93
2022-12-03T09:02:32.988Z,24.87
2022-12-03T09:05:02.775Z,24.33
2022-12-03T09:07:29.348Z,24.17
2022-12-03T09:09:55.847Z,25.60
2022-12-03T09:12:22.492Z,22.10
2022-12-03T09:14:49.180Z,23.27
2022-12-03T09:17:15.848Z,24.97
2022-12-03T09:19:46.191Z,25.53
2022-12-03T09:22:13.436Z,24.50
2022-12-03T09:24:40.064Z,25.23
2022-12-03T09:27:06.687Z,24.50
2022-12-03T09:29:33.105Z,23.70
2022-12-03T09:31:59.618Z,24.87
2022-12-03T09:34:26.141Z,25.87
2022-12-03T09:36:52.628Z,26.10
2022-12-03T09:39:19.153Z,26.27
2022-12-03T09:41:45.892Z,24.73
2022-12-03T09:44:17.556Z,24.83
2022-12-03T09:46:45.760Z,24.13
2022-12-03T09:49:15.964Z,25.57
2022-12-03T09:51:43.906Z,24.67
2022-12-03T09:54:14.429Z,24.87
2022-12-03T09:56:40.974Z,24.43
2022-12-03T09:59:14.020Z,25.90
2022-12-03T10:01:40.809Z,25.03
2022-12-03T10:04:07.606Z,24.33
2022-12-03T10:06:34.265Z,24.37
2022-12-03T10:09:01.317Z,26.17
2022-12-03T10:11:29.378Z,23.47
2022-12-03T10:13:57.323Z,24.27
2022-12-03T10:16:24.778Z,23.07
2022-12-03T10:18:53.717Z,23.50
2022-12-03T10:21:24.380Z,24.27
2022-12-03T10:24:17.841Z,25.60
2022-12-03T10:26:46.059Z,23.97
2022-12-03T10:29:31.363Z,22.87
2022-12-03T10:32:03.089Z,23.73
2022-12-03T10:34:41.064Z,23.50
2022-12-03T10:37:19.460Z,22.33
2022-12-03T10:39:56.282Z,24.70
2022-12-03T10:42:24.107Z,23.03
2022-12-03T10:45:06.968Z,23.10
2022-12-03T10:47:33.541Z,22.67
2022-12-03T10:50:14.203Z,23.23
2022-12-03T10:52:40.862Z,22.40
2022-12-03T10:55:10.801Z,23.93
2022-12-03T10:57:41.090Z,21.87
2022-12-03T11:00:20.468Z,22.47
2022-12-03T11:02:53.331Z,23.80
2022-12-03T11:05:26.829Z,23.10
2022-12-03T11:07:53.927Z,21.53
2022-12-03T11:10:20.744Z,22.50
2022-12-03T11:13:26.333Z,23.10
2022-12-03T11:15:53.306Z,19.10
2022-12-03T11:18:55.098Z,21.67
2022-12-03T11:21:21.774Z,20.33
2022-12-03T11:23:54.611Z,20.50
2022-12-03T11:26:33.003Z,20.47
2022-12-03T11:29:00.090Z,20.57
2022-12-03T11:31:47.466Z,21.33
2022-12-03T11:34:20.455Z,19.77
2022-12-03T11:37:11.973Z,20.57
2022-12-03T11:39:44.600Z,19.40
2022-12-03T11:42:26.495Z,18.37
2022-12-03T11:45:20.379Z,19.50
2022-12-03T11:48:14.133Z,18.50
2022-12-03T11:50:58.684Z,17.20
2022-12-03T11:53:27.043Z,17.50
2022-12-03T11:56:08.273Z,16.60
2022-12-03T11:58:38.254Z,17.60
2022-12-03T12:01:06.967Z,16.67
2022-12-03T12:03:43.763Z,17.20
2022-12-03T12:06:13.209Z,17.47
2022-12-03T12:08:59.884Z,17.20
2022-12-03T12:11:27.710Z,18.00
2022-12-03T12:13:58.637Z,17.80
2022-12-03T12:16:51.136Z,16.93
2022-12-03T12:19:41.190Z,17.27
2022-12-03T12:22:24.986Z,17.83
2022-12-03T12:24:53.136Z,18.10
2022-12-03T12:27:30.597Z,17.50
2022-12-03T12:30:01.847Z,17.53
2022-12-03T12:32:30.777Z,16.40
2022-12-03T12:35:00.719Z,16.80
2022-12-03T12:37:47.324Z,18.13
2022-12-03T12:40:17.606Z,16.97
2022-12-03T12:42:50.255Z,15.60
2022-12-03T12:45:20.432Z,16.27
2022-12-03T12:47:50.060Z,17.93
2022-12-03T12:50:17.988Z,16.33
2022-12-03T12:52:53.521Z,17.00
2022-12-03T12:55:21.031Z,16.30
2022-12-03T12:57:47.673Z,15.37
2022-12-03T13:00:21.141Z,15.87
2022-12-03T13:03:00.035Z,16.40
2022-12-03T13:05:27.837Z,15.30
2022-12-03T13:07:54.824Z,15.67
2022-12-03T13:10:33.755Z,15.93
2022-12-03T13:13:18.587Z,15.93
2022-12-03T13:15:50.553Z,15.67
2022-12-03T13:18:27.988Z,14.77
2022-12-03T13:20:55.406Z,16.27
2022-12-03T13:23:31.198Z,14.77
2022-12-03T13:26:06.664Z,14.90
2022-12-03T13:28:45.314Z,16.30
2022-12-03T13:31:24.219Z,14.87
2022-12-03T13:33:51.735Z,15.47
2022-12-03T13:36:21.742Z,16.53
2022-12-03T13:38:48.570Z,14.60
2022-12-03T13:41:36.967Z,15.97
2022-12-03T13:44:12.741Z,16.80
2022-12-03T13:46:39.434Z,16.73
2022-12-03T13:49:13.927Z,16.87
2022-12-03T13:51:42.527Z,16.10
2022-12-03T13:54:16.047Z,17.30
2022-12-03T13:56:42.948Z,17.43
2022-12-03T13:59:09.467Z,17.57
2022-12-03T14:01:36.322Z,16.63
2022-12-03T14:04:03.810Z,17.87
2022-12-03T14:06:30.487Z,16.27
2022-12-03T14:08:56.925Z,17.57
2022-12-03T14:11:58.743Z,18.27
2022-12-03T14:14:25.471Z,17.03
2022-12-03T14:16:56.668Z,17.80
2022-12-03T14:19:26.122Z,17.27
2022-12-03T14:21:52.618Z,19.63
2022-12-03T14:24:19.113Z,17.73
2022-12-03T14:26:45.801Z,18.87
2022-12-03T14:29:12.396Z,19.10
2022-12-03T14:31:38.907Z,18.50
2022-12-03T14:34:05.441Z,18.10
2022-12-03T14:36:32.048Z,18.87
2022-12-03T14:38:58.492Z,18.60
2022-12-03T14:41:45.204Z,18.27
2022-12-03T14:44:11.874Z,17.73
2022-12-03T14:46:38.293Z,18.33
2022-12-03T14:49:04.762Z,18.40
2022-12-03T14:51:31.264Z,19.00
2022-12-03T14:53:57.778Z,18.70
2022-12-03T14:56:24.265Z,18.23
2022-12-03T14:58:50.911Z,20.13
2022-12-03T15:01:17.519Z,19.20
2022-12-03T15:03:43.999Z,19.10
2022-12-03T15:06:10.482Z,19.03
2022-12-03T15:08:36.987Z,19.53
2022-12-03T15:11:03.380Z,19.43
2022-12-03T15:13:29.850Z,20.57
2022-12-03T15:15:56.295Z,19.70
2022-12-03T15:18:22.886Z,19.60
2022-12-03T15:20:49.714Z,19.60
2022-12-03T15:23:16.256Z,19.50
2022-12-03T15:25:43.170Z,18.27
2022-12-03T15:28:10.055Z,19.40
2022-12-03T15:30:36.523Z,19.87
2022-12-03T15:33:03.385Z,19.97
2022-12-03T15:35:30.599Z,19.53
2022-12-03T15:37:57.122Z,20.67
2022-12-03T15:40:24.525Z,20.63
2022-12-03T15:42:51.186Z,20.17
2022-12-03T15:45:18.048Z,21.70
2022-12-03T15:47:44.810Z,21.27
2022-12-03T15:50:13.003Z,20.57
2022-12-03T15:52:39.552Z,20.13
2022-12-03T15:55:06.451Z,20.47
2022-12-03T15:57:32.957Z,19.80
2022-12-03T15:59:59.487Z,20.27
2022-12-03T16:02:28.525Z,20.40
2022-12-03T16:04:55.012Z,20.33
2022-12-03T16:07:21.550Z,19.80
2022-12-03T16:09:48.215Z,20.97
2022-12-03T16:12:14.791Z,20.00
2022-12-03T16:14:41.358Z,20.40
2022-12-03T16:17:07.773Z,20.90
2022-12-03T16:19:34.905Z,21.40
2022-12-03T16:22:01.394Z,21.40
2022-12-03T16:24:28.031Z,20.47
2022-12-03T16:26:54.430Z,21.47
2022-12-03T16:29:20.890Z,20.87
2022-12-03T16:31:47.434Z,21.53
2022-12-03T16:34:14.026Z,24.27
2022-12-03T16:36:40.486Z,23.23
2022-12-03T16:39:07.592Z,24.17
2022-12-03T16:41:34.101Z,24.80
2022-12-03T16:44:03.120Z,25.10
2022-12-03T16:46:29.958Z,27.53
2022-12-03T16:49:00.504Z,24.83
2022-12-03T16:51:28.261Z,24.87
2022-12-03T16:53:54.839Z,26.37
2022-12-03T16:56:21.419Z,26.27
2022-12-03T16:58:47.917Z,26.53
2022-12-03T17:01:15.291Z,27.00
2022-12-03T17:03:42.275Z,25.83
2022-12-03T17:06:08.740Z,26.83
2022-12-03T17:08:35.214Z,24.97
2022-12-03T17:11:01.815Z,27.30
2022-12-03T17:13:28.401Z,27.47
2022-12-03T17:15:55.070Z,27.10
2022-12-03T17:18:23.438Z,24.33
2022-12-03T17:20:49.919Z,27.07
2022-12-03T17:23:18.082Z,28.10
2022-12-03T17:25:44.726Z,26.77
2022-12-03T17:28:11.355Z,26.83
2022-12-03T17:30:37.804Z,25.43
2022-12-03T17:33:04.312Z,26.00
2022-12-03T17:35:31.084Z,26.97
2022-12-03T17:37:57.788Z,28.80
2022-12-03T17:40:24.267Z,28.40
2022-12-03T17:42:50.684Z,25.87
2022-12-03T17:45:17.248Z,27.67
2022-12-03T17:47:43.922Z,27.50
2022-12-03T17:50:10.844Z,25.73
2022-12-03T17:52:37.334Z,26.57
2022-12-03T17:55:17.742Z,26.27
2022-12-03T17:57:50.417Z,25.20
2022-12-03T18:00:17.158Z,25.50
2022-12-03T18:02:43.620Z,25.60
2022-12-03T18:05:10.812Z,24.47
2022-12-03T18:07:37.690Z,25.77
2022-12-03T18:10:05.225Z,26.53
2022-12-03T18:12:32.354Z,23.97
2022-12-03T18:14:58.849Z,24.03
2022-12-03T18:17:25.343Z,25.57
2022-12-03T18:19:52.126Z,26.83
2022-12-03T18:22:19.410Z,24.33
2022-12-03T18:24:50.220Z,24.83
2022-12-03T18:27:18.171Z,24.63
2022-12-03T18:29:46.164Z,24.90
2022-12-03T18:32:27.646Z,24.80
2022-12-03T18:34:55.754Z,24.07
2022-12-03T18:37:23.035Z,23.70
2022-12-03T18:39:49.650Z,23.20
2022-12-03T18:42:21.524Z,24.93
2022-12-03T18:44:50.267Z,22.60
2022-12-03T18:47:22.349Z,24.37
2022-12-03T18:49:50.248Z,23.23
2022-12-03T18:52:21.585Z,23.73
2022-12-03T18:54:51.386Z,24.70
2022-12-03T18:57:18.662Z,24.87
2022-12-03T18:59:45.422Z,24.67
2022-12-03T19:02:53.819Z,24.37
2022-12-03T19:05:07.872Z,23.83
2022-12-03T19:07:35.039Z,24.40
2022-12-03T19:10:02.143Z,24.87
2022-12-03T19:12:32.298Z,23.27
2022-12-03T19:14:59.358Z,24.43
2022-12-03T19:17:27.502Z,24.93
2022-12-03T19:19:55.687Z,24.13
2022-12-03T19:22:23.475Z,23.40
2022-12-03T19:24:51.215Z,25.30
2022-12-03T19:27:18.914Z,24.33
2022-12-03T19:29:50.846Z,23.30
2022-12-03T19:32:18.142Z,24.93
2022-12-03T19:34:44.685Z,26.50
2022-12-03T19:37:11.242Z,24.47
2022-12-03T19:39:38.502Z,23.23
2022-12-03T19:42:05.104Z,24.53
2022-12-03T19:44:33.837Z,23.83
2022-12-03T19:47:02.223Z,24.00
2022-12-03T19:49:29.212Z,24.00
2022-12-03T19:51:55.911Z,25.23
2022-12-03T19:54:25.312Z,24.87
2022-12-03T19:56:52.558Z,25.20
2022-12-03T19:59:19.880Z,24.43
2022-12-03T20:01:46.640Z,23.47
2022-12-03T20:04:14.182Z,24.60
2022-12-03T20:06:41.819Z,23.73
2022-12-03T20:09:18.169Z,24.60
2022-12-03T20:11:51.735Z,24.23
2022-12-03T20:14:23.327Z,24.00
2022-12-03T20:16:51.568Z,23.53
2022-12-03T20:19:18.607Z,23.67
2022-12-03T20:21:45.652Z,24.53
2022-12-03T20:24:16.975Z,23.33
2022-12-03T20:26:44.011Z,26.10
2022-12-03T20:29:10.646Z,26.10
2022-12-03T20:31:37.602Z,25.80
2022-12-03T20:34:07.016Z,25.90
2022-12-03T20:36:37.739Z,27.17
2022-12-03T20:39:07.963Z,26.17
2022-12-03T20:41:40.171Z,26.70
2022-12-03T20:44:09.870Z,26.23
2022-12-03T20:46:37.117Z,26.70
2022-12-03T20:49:04.170Z,26.43
2022-12-03T20:51:31.567Z,27.17
2022-12-03T20:53:59.895Z,27.03
2022-12-03T20:56:33.247Z,27.77
2022-12-03T20:59:06.634Z,25.10
2022-12-03T21:01:34.638Z,26.33
2022-12-03T21:04:02.958Z,25.43
2022-12-03T21:06:31.834Z,25.57
2022-12-03T21:09:01.251Z,25.87
2022-12-03T21:11:31.079Z,27.47
2022-12-03T21:13:59.817Z,26.20
2022-12-03T21:16:59.200Z,28.83
2022-12-03T21:19:22.784Z,27.50
2022-12-03T21:21:50.142Z,26.77
2022-12-03T21:24:17.644Z,27.53
2022-12-03T21:26:44.279Z,27.23
2022-12-03T21:29:11.665Z,27.23
2022-12-03T21:31:42.319Z,26.60
2022-12-03T21:34:09.057Z,26.60
2022-12-03T21:36:35.890Z,26.80
2022-12-03T21:39:03.764Z,27.73
2022-12-03T21:41:30.912Z,28.63
2022-12-03T21:43:58.198Z,28.20
2022-12-03T21:47:11.455Z,30.23
2022-12-03T21:49:14.814Z,28.10
2022-12-03T21:51:41.641Z,28.63
2022-12-03T21:54:08.244Z,28.57
2022-12-03T21:56:35.932Z,29.63
2022-12-03T21:59:04.617Z,28.40
2022-12-03T22:01:34.249Z,28.00
2022-12-03T22:04:02.283Z,28.87
2022-12-03T22:06:30.871Z,29.37
2022-12-03T22:08:58.609Z,28.40
2022-12-03T22:11:25.479Z,29.30
2022-12-03T22:13:52.276Z,28.00
2022-12-03T22:16:22.823Z,30.00
2022-12-03T22:18:52.227Z,29.47
2022-12-03T22:21:19.837Z,28.40
2022-12-03T22:23:50.651Z,30.27
2022-12-03T22:26:18.986Z,29.13
2022-12-03T22:28:47.644Z,28.30
2022-12-03T22:31:14.617Z,28.10
2022-12-03T22:33:43.533Z,28.53
2022-12-03T22:36:20.099Z,29.00
2022-12-03T22:38:48.094Z,29.77
2022-12-03T22:41:16.055Z,27.60
2022-12-03T22:43:44.274Z,30.43
2022-12-03T22:46:16.536Z,28.70
2022-12-03T22:48:46.581Z,27.03
2022-12-03T22:51:16.578Z,27.93
2022-12-03T22:53:45.087Z,28.07
2022-12-03T22:56:13.649Z,27.77
2022-12-03T22:58:41.520Z,30.20
2022-12-03T23:01:08.951Z,28.23
2022-12-03T23:03:37.725Z,28.83
2022-12-03T23:06:12.738Z,30.13
2022-12-03T23:08:39.518Z,27.90
2022-12-03T23:11:08.759Z,29.23
2022-12-03T23:13:36.626Z,30.43
2022-12-03T23:16:04.285Z,29.20
2022-12-03T23:18:32.301Z,29.40
2022-12-03T23:20:59.804Z,27.23
2022-12-03T23:23:28.949Z,28.17
2022-12-03T23:25:59.210Z,26.80
2022-12-03T23:28:29.707Z,28.07
2022-12-03T23:31:00.815Z,26.20
2022-12-03T23:33:30.449Z,28.33
2022-12-03T23:36:00.497Z,28.93
2022-12-03T23:38:29.332Z,27.53
2022-12-03T23:40:56.414Z,27.33
2022-12-03T23:43:24.059Z,27.83
2022-12-03T23:45:53.863Z,26.63
2022-12-03T23:48:23.751Z,27.97
2022-12-03T23:50:51.288Z,27.93
2022-12-03T23:53:20.717Z,27.83
2022-12-03T23:55:47.773Z,28.73
2022-12-03T23:58:14.571Z,28.07
